sensor_id;sensor_type;location;lat;lon;timestamp;pressure;altitude;pressure_sealevel;temperature;humidity
64544;BME280;50936;51.660;5.616;2023-10-31T00:00:36;99248.44;;;25.10;48.40
64544;BME280;50936;51.660;5.616;2023-10-31T00:03:24;99251.44;;;25.08;48.13
64544;BME280;50936;51.660;5.616;2023-10-31T00:06:11;99257.78;;;25.09;48.27
64544;BME280;50936;51.660;5.616;2023-10-31T00:08:58;99275.69;;;25.06;48.14
64544;BME280;50936;51.660;5.616;2023-10-31T00:11:45;99283.75;;;25.08;48.37
64544;BME280;50936;51.660;5.616;2023-10-31T00:14:33;99293.09;;;25.07;48.05
64544;BME280;50936;51.660;5.616;2023-10-31T00:17:20;99303.31;;;25.06;48.29
64544;BME280;50936;51.660;5.616;2023-10-31T00:20:07;99296.97;;;25.06;48.29
64544;BME280;50936;51.660;5.616;2023-10-31T00:22:55;99293.56;;;25.04;48.21
64544;BME280;50936;51.660;5.616;2023-10-31T00:25:42;99295.72;;;25.02;47.96
64544;BME280;50936;51.660;5.616;2023-10-31T00:28:29;99291.91;;;25.03;48.39
64544;BME280;50936;51.660;5.616;2023-10-31T00:31:17;99299.38;;;25.02;48.18
64544;BME280;50936;51.660;5.616;2023-10-31T00:34:04;99299.59;;;25.01;48.04
64544;BME280;50936;51.660;5.616;2023-10-31T00:36:51;99306.78;;;25.02;48.24
64544;BME280;50936;51.660;5.616;2023-10-31T00:39:38;99311.72;;;25.00;48.40
64544;BME280;50936;51.660;5.616;2023-10-31T00:42:26;99320.00;;;25.00;48.23
64544;BME280;50936;51.660;5.616;2023-10-31T00:45:13;99325.50;;;25.00;48.37
64544;BME280;50936;51.660;5.616;2023-10-31T00:48:00;99324.69;;;24.99;48.39
64544;BME280;50936;51.660;5.616;2023-10-31T00:50:48;99319.41;;;24.97;48.40
64544;BME280;50936;51.660;5.616;2023-10-31T00:53:35;99322.16;;;24.97;48.08
64544;BME280;50936;51.660;5.616;2023-10-31T00:56:22;99320.97;;;24.93;48.14
64544;BME280;50936;51.660;5.616;2023-10-31T00:59:09;99326.47;;;24.93;48.31
64544;BME280;50936;51.660;5.616;2023-10-31T01:01:56;99334.53;;;24.95;48.10
64544;BME280;50936;51.660;5.616;2023-10-31T01:04:44;99334.16;;;24.91;48.13
64544;BME280;50936;51.660;5.616;2023-10-31T01:07:31;99340.28;;;24.93;48.10
64544;BME280;50936;51.660;5.616;2023-10-31T01:10:18;99332.22;;;24.92;48.23
64544;BME280;50936;51.660;5.616;2023-10-31T01:13:05;99339.69;;;24.91;48.39
64544;BME280;50936;51.660;5.616;2023-10-31T01:15:53;99346.88;;;24.92;48.51
64544;BME280;50936;51.660;5.616;2023-10-31T01:18:40;99344.34;;;24.91;48.27
64544;BME280;50936;51.660;5.616;2023-10-31T01:21:27;99343.50;;;24.90;48.33
64544;BME280;50936;51.660;5.616;2023-10-31T01:24:15;99352.91;;;24.89;48.38
64544;BME280;50936;51.660;5.616;2023-10-31T01:27:02;99357.31;;;24.90;48.07
64544;BME280;50936;51.660;5.616;2023-10-31T01:29:50;99358.41;;;24.89;48.27
64544;BME280;50936;51.660;5.616;2023-10-31T01:32:37;99358.41;;;24.89;48.17
64544;BME280;50936;51.660;5.616;2023-10-31T01:35:24;99362.25;;;24.88;48.42
64544;BME280;50936;51.660;5.616;2023-10-31T01:38:12;99362.25;;;24.88;48.38
64544;BME280;50936;51.660;5.616;2023-10-31T01:40:59;99357.78;;;24.87;48.36
64544;BME280;50936;51.660;5.616;2023-10-31T01:43:46;99364.63;;;24.85;48.30
64544;BME280;50936;51.660;5.616;2023-10-31T01:46:34;99365.22;;;24.87;48.21
64544;BME280;50936;51.660;5.616;2023-10-31T01:49:21;99365.47;;;24.85;48.35
64544;BME280;50936;51.660;5.616;2023-10-31T01:52:09;99371.00;;;24.85;48.17
64544;BME280;50936;51.660;5.616;2023-10-31T01:54:56;99370.38;;;24.83;48.22
64544;BME280;50936;51.660;5.616;2023-10-31T01:57:45;99367.63;;;24.83;48.30
64544;BME280;50936;51.660;5.616;2023-10-31T02:00:34;99359.34;;;24.83;48.20
64544;BME280;50936;51.660;5.616;2023-10-31T02:03:21;99371.22;;;24.84;48.20
64544;BME280;50936;51.660;5.616;2023-10-31T02:06:08;99370.63;;;24.82;48.52
64544;BME280;50936;51.660;5.616;2023-10-31T02:08:56;99367.84;;;24.82;48.37
64544;BME280;50936;51.660;5.616;2023-10-31T02:11:43;99376.41;;;24.80;48.58
64544;BME280;50936;51.660;5.616;2023-10-31T02:14:30;99374.47;;;24.81;48.26
64544;BME280;50936;51.660;5.616;2023-10-31T02:17:17;99372.53;;;24.81;48.24
64544;BME280;50936;51.660;5.616;2023-10-31T02:20:05;99362.81;;;24.78;48.60
64544;BME280;50936;51.660;5.616;2023-10-31T02:22:53;99357.06;;;24.80;48.40
64544;BME280;50936;51.660;5.616;2023-10-31T02:25:40;99356.44;;;24.78;48.27
64544;BME280;50936;51.660;5.616;2023-10-31T02:28:27;99358.13;;;24.79;48.32
64544;BME280;50936;51.660;5.616;2023-10-31T02:31:15;99356.44;;;24.78;48.18
64544;BME280;50936;51.660;5.616;2023-10-31T02:34:02;99358.59;;;24.76;48.06
64544;BME280;50936;51.660;5.616;2023-10-31T02:36:50;99362.22;;;24.76;48.34
64544;BME280;50936;51.660;5.616;2023-10-31T02:39:37;99365.81;;;24.77;48.53
64544;BME280;50936;51.660;5.616;2023-10-31T02:42:25;99372.16;;;24.77;48.34
64544;BME280;50936;51.660;5.616;2023-10-31T02:45:12;99376.03;;;24.76;48.07
64544;BME280;50936;51.660;5.616;2023-10-31T02:47:59;99371.81;;;24.74;48.10
64544;BME280;50936;51.660;5.616;2023-10-31T02:50:47;99375.16;;;24.76;48.30
64544;BME280;50936;51.660;5.616;2023-10-31T02:53:35;99383.44;;;24.76;48.23
64544;BME280;50936;51.660;5.616;2023-10-31T02:56:23;99378.41;;;24.73;48.37
64544;BME280;50936;51.660;5.616;2023-10-31T02:59:10;99389.19;;;24.74;48.31
64544;BME280;50936;51.660;5.616;2023-10-31T03:01:58;99390.28;;;24.73;48.47
64544;BME280;50936;51.660;5.616;2023-10-31T03:04:45;99395.59;;;24.75;48.08
64544;BME280;50936;51.660;5.616;2023-10-31T03:07:32;99401.09;;;24.75;48.17
64544;BME280;50936;51.660;5.616;2023-10-31T03:10:20;99394.97;;;24.73;48.43
64544;BME280;50936;51.660;5.616;2023-10-31T03:13:08;99396.03;;;24.72;48.16
64544;BME280;50936;51.660;5.616;2023-10-31T03:15:55;99400.50;;;24.73;48.28
64544;BME280;50936;51.660;5.616;2023-10-31T03:18:43;99400.50;;;24.73;48.61
64544;BME280;50936;51.660;5.616;2023-10-31T03:21:30;99411.78;;;24.71;48.56
64544;BME280;50936;51.660;5.616;2023-10-31T03:24:19;99411.78;;;24.71;48.57
64544;BME280;50936;51.660;5.616;2023-10-31T03:27:06;99413.44;;;24.72;48.34
64544;BME280;50936;51.660;5.616;2023-10-31T03:29:53;99416.44;;;24.71;48.41
64544;BME280;50936;51.660;5.616;2023-10-31T03:32:40;99413.06;;;24.69;48.27
64544;BME280;50936;51.660;5.616;2023-10-31T03:35:28;99423.28;;;24.68;48.29
64544;BME280;50936;51.660;5.616;2023-10-31T03:38:15;99424.09;;;24.69;48.39
64544;BME280;50936;51.660;5.616;2023-10-31T03:41:02;99427.97;;;24.68;48.53
64544;BME280;50936;51.660;5.616;2023-10-31T03:43:50;99430.50;;;24.69;48.29
64544;BME280;50936;51.660;5.616;2023-10-31T03:46:38;99450.88;;;24.68;48.50
64544;BME280;50936;51.660;5.616;2023-10-31T03:49:25;99442.00;;;24.66;48.63
64544;BME280;50936;51.660;5.616;2023-10-31T03:52:12;99444.53;;;24.68;48.24
64544;BME280;50936;51.660;5.616;2023-10-31T03:54:59;99453.88;;;24.67;48.20
64544;BME280;50936;51.660;5.616;2023-10-31T03:57:47;99452.19;;;24.66;48.21
64544;BME280;50936;51.660;5.616;2023-10-31T04:00:34;99456.84;;;24.65;48.22
64544;BME280;50936;51.660;5.616;2023-10-31T04:03:22;99454.97;;;24.66;48.15
64544;BME280;50936;51.660;5.616;2023-10-31T04:06:09;99464.31;;;24.65;48.51
64544;BME280;50936;51.660;5.616;2023-10-31T04:08:56;99459.88;;;24.64;48.35
64544;BME280;50936;51.660;5.616;2023-10-31T04:11:43;99468.75;;;24.66;48.52
64544;BME280;50936;51.660;5.616;2023-10-31T04:14:31;99474.28;;;24.66;48.26
64544;BME280;50936;51.660;5.616;2023-10-31T04:17:18;99474.72;;;24.63;48.61
64544;BME280;50936;51.660;5.616;2023-10-31T04:20:06;99487.47;;;24.64;48.42
64544;BME280;50936;51.660;5.616;2023-10-31T04:22:54;99481.97;;;24.64;48.16
64544;BME280;50936;51.660;5.616;2023-10-31T04:25:41;99481.97;;;24.64;48.38
64544;BME280;50936;51.660;5.616;2023-10-31T04:28:28;99480.25;;;24.63;48.44
64544;BME280;50936;51.660;5.616;2023-10-31T04:31:15;99485.78;;;24.63;48.42
64544;BME280;50936;51.660;5.616;2023-10-31T04:34:02;99486.63;;;24.63;48.19
64544;BME280;50936;51.660;5.616;2023-10-31T04:36:50;99485.78;;;24.63;48.40
64544;BME280;50936;51.660;5.616;2023-10-31T04:39:37;99489.59;;;24.62;48.38
64544;BME280;50936;51.660;5.616;2023-10-31T04:42:24;99494.06;;;24.63;48.49
64544;BME280;50936;51.660;5.616;2023-10-31T04:45:11;99495.13;;;24.62;48.70
64544;BME280;50936;51.660;5.616;2023-10-31T04:47:58;99505.56;;;24.59;48.33
64544;BME280;50936;51.660;5.616;2023-10-31T04:50:46;99503.88;;;24.58;48.31
64544;BME280;50936;51.660;5.616;2023-10-31T04:53:33;99505.56;;;24.59;48.32
64544;BME280;50936;51.660;5.616;2023-10-31T04:56:21;99516.38;;;24.61;48.30
64544;BME280;50936;51.660;5.616;2023-10-31T04:59:08;99524.88;;;24.59;48.23
64544;BME280;50936;51.660;5.616;2023-10-31T05:01:56;99516.81;;;24.58;48.17
64544;BME280;50936;51.660;5.616;2023-10-31T05:04:43;99528.72;;;24.58;48.51
64544;BME280;50936;51.660;5.616;2023-10-31T05:07:30;99528.72;;;24.58;48.22
64544;BME280;50936;51.660;5.616;2023-10-31T05:10:19;99531.47;;;24.58;48.49
64544;BME280;50936;51.660;5.616;2023-10-31T05:13:06;99533.38;;;24.58;48.21
64544;BME280;50936;51.660;5.616;2023-10-31T05:15:54;99530.88;;;24.56;48.37
64544;BME280;50936;51.660;5.616;2023-10-31T05:18:41;99543.59;;;24.57;48.34
64544;BME280;50936;51.660;5.616;2023-10-31T05:21:28;99549.09;;;24.57;48.39
64544;BME280;50936;51.660;5.616;2023-10-31T05:24:15;99555.47;;;24.58;48.57
64544;BME280;50936;51.660;5.616;2023-10-31T05:27:03;99548.03;;;24.58;48.50
64544;BME280;50936;51.660;5.616;2023-10-31T05:29:51;99546.56;;;24.56;48.13
64544;BME280;50936;51.660;5.616;2023-10-31T05:32:38;99541.06;;;24.56;48.62
64544;BME280;50936;51.660;5.616;2023-10-31T05:35:26;99542.97;;;24.55;48.61
64544;BME280;50936;51.660;5.616;2023-10-31T05:38:13;99540.00;;;24.57;48.17
64544;BME280;50936;51.660;5.616;2023-10-31T05:41:00;99556.31;;;24.58;48.38
64544;BME280;50936;51.660;5.616;2023-10-31T05:43:47;99555.22;;;24.59;48.45
64544;BME280;50936;51.660;5.616;2023-10-31T05:46:38;99566.06;;;24.61;48.72
64544;BME280;50936;51.660;5.616;2023-10-31T05:49:26;99566.88;;;24.62;48.28
64544;BME280;50936;51.660;5.616;2023-10-31T05:52:13;99576.88;;;24.63;48.48
64544;BME280;50936;51.660;5.616;2023-10-31T05:55:00;99575.81;;;24.64;48.33
64544;BME280;50936;51.660;5.616;2023-10-31T05:57:48;99585.97;;;24.63;48.71
64544;BME280;50936;51.660;5.616;2023-10-31T06:00:35;99586.84;;;24.64;48.84
64544;BME280;50936;51.660;5.616;2023-10-31T06:03:24;99598.72;;;24.64;48.53
64544;BME280;50936;51.660;5.616;2023-10-31T06:06:12;99595.97;;;24.64;48.55
64544;BME280;50936;51.660;5.616;2023-10-31T06:08:59;99594.88;;;24.65;48.66
64544;BME280;50936;51.660;5.616;2023-10-31T06:11:47;99602.31;;;24.65;48.69
64544;BME280;50936;51.660;5.616;2023-10-31T06:14:34;99605.06;;;24.65;48.25
64544;BME280;50936;51.660;5.616;2023-10-31T06:17:21;99610.00;;;24.63;48.59
64544;BME280;50936;51.660;5.616;2023-10-31T06:20:09;99614.44;;;24.64;48.63
64544;BME280;50936;51.660;5.616;2023-10-31T06:22:57;99619.34;;;24.62;48.70
64544;BME280;50936;51.660;5.616;2023-10-31T06:25:44;99619.97;;;24.64;48.52
64544;BME280;50936;51.660;5.616;2023-10-31T06:28:31;99623.78;;;24.63;48.57
64544;BME280;50936;51.660;5.616;2023-10-31T06:31:26;99631.00;;;24.64;48.48
64544;BME280;50936;51.660;5.616;2023-10-31T06:34:14;99633.78;;;24.64;48.47
64544;BME280;50936;51.660;5.616;2023-10-31T06:37:02;99634.84;;;24.63;48.38
64544;BME280;50936;51.660;5.616;2023-10-31T06:39:50;99648.41;;;24.64;48.44
64544;BME280;50936;51.660;5.616;2023-10-31T06:42:37;99643.72;;;24.65;48.50
64544;BME280;50936;51.660;5.616;2023-10-31T06:45:24;99649.25;;;24.65;48.36
64544;BME280;50936;51.660;5.616;2023-10-31T06:48:11;99647.56;;;24.64;48.67
64544;BME280;50936;51.660;5.616;2023-10-31T06:50:59;99642.88;;;24.64;48.57
64544;BME280;50936;51.660;5.616;2023-10-31T06:53:46;99646.72;;;24.63;48.47
64544;BME280;50936;51.660;5.616;2023-10-31T06:56:33;99648.19;;;24.66;48.66
64544;BME280;50936;51.660;5.616;2023-10-31T06:59:21;99653.44;;;24.67;48.81
64544;BME280;50936;51.660;5.616;2023-10-31T07:02:08;99657.31;;;24.66;48.64
64544;BME280;50936;51.660;5.616;2023-10-31T07:04:56;99660.06;;;24.66;48.98
64544;BME280;50936;51.660;5.616;2023-10-31T07:07:43;99662.00;;;24.66;48.71
64544;BME280;50936;51.660;5.616;2023-10-31T07:10:30;99669.19;;;24.67;48.77
64544;BME280;50936;51.660;5.616;2023-10-31T07:13:17;99660.91;;;24.67;48.71
64544;BME280;50936;51.660;5.616;2023-10-31T07:16:05;99662.00;;;24.66;48.71
64544;BME280;50936;51.660;5.616;2023-10-31T07:18:53;99654.53;;;24.66;48.81
64544;BME280;50936;51.660;5.616;2023-10-31T07:21:40;99663.66;;;24.67;48.68
64544;BME280;50936;51.660;5.616;2023-10-31T07:24:27;99667.50;;;24.66;48.81
64544;BME280;50936;51.660;5.616;2023-10-31T07:27:14;99675.19;;;24.64;48.82
64544;BME280;50936;51.660;5.616;2023-10-31T07:30:03;99667.50;;;24.66;49.11
64544;BME280;50936;51.660;5.616;2023-10-31T07:32:52;99674.72;;;24.67;48.75
64544;BME280;50936;51.660;5.616;2023-10-31T07:35:40;99676.41;;;24.68;49.07
64544;BME280;50936;51.660;5.616;2023-10-31T07:38:27;99667.50;;;24.66;48.82
64544;BME280;50936;51.660;5.616;2023-10-31T07:41:14;99671.94;;;24.67;49.02
64544;BME280;50936;51.660;5.616;2023-10-31T07:44:01;99669.41;;;24.65;49.02
64544;BME280;50936;51.660;5.616;2023-10-31T07:46:49;99674.72;;;24.67;48.95
64544;BME280;50936;51.660;5.616;2023-10-31T07:49:36;99684.91;;;24.66;49.12
64544;BME280;50936;51.660;5.616;2023-10-31T07:52:23;99676.84;;;24.65;48.97
64544;BME280;50936;51.660;5.616;2023-10-31T07:55:11;99685.34;;;24.63;49.02
64544;BME280;50936;51.660;5.616;2023-10-31T07:58:01;99682.22;;;24.78;48.42
64544;BME280;50936;51.660;5.616;2023-10-31T08:00:48;99689.13;;;24.69;48.65
64544;BME280;50936;51.660;5.616;2023-10-31T08:03:36;99689.59;;;24.66;49.03
64544;BME280;50936;51.660;5.616;2023-10-31T08:06:25;99702.78;;;24.64;48.76
64544;BME280;50936;51.660;5.616;2023-10-31T08:09:12;99695.56;;;24.63;48.91
64544;BME280;50936;51.660;5.616;2023-10-31T08:11:59;99706.59;;;24.63;48.99
64544;BME280;50936;51.660;5.616;2023-10-31T08:14:46;99699.38;;;24.62;48.76
64544;BME280;50936;51.660;5.616;2023-10-31T08:17:34;99707.66;;;24.62;48.88
64544;BME280;50936;51.660;5.616;2023-10-31T08:20:21;99711.28;;;24.62;48.93
64544;BME280;50936;51.660;5.616;2023-10-31T08:23:08;99713.81;;;24.64;49.09
64544;BME280;50936;51.660;5.616;2023-10-31T08:25:56;99713.81;;;24.64;48.85
64544;BME280;50936;51.660;5.616;2023-10-31T08:28:44;99722.72;;;24.66;48.79
64544;BME280;50936;51.660;5.616;2023-10-31T08:31:31;99719.09;;;24.65;48.91
64544;BME280;50936;51.660;5.616;2023-10-31T08:34:18;99716.59;;;24.64;49.02
64544;BME280;50936;51.660;5.616;2023-10-31T08:37:05;99726.09;;;24.68;48.88
64544;BME280;50936;51.660;5.616;2023-10-31T08:39:52;99725.00;;;24.69;48.76
64544;BME280;50936;51.660;5.616;2023-10-31T08:42:40;99726.09;;;24.68;48.65
64544;BME280;50936;51.660;5.616;2023-10-31T08:45:28;99727.78;;;24.69;48.82
64544;BME280;50936;51.660;5.616;2023-10-31T08:48:15;99723.94;;;24.70;48.63
64544;BME280;50936;51.660;5.616;2023-10-31T08:51:03;99733.91;;;24.71;48.67
64544;BME280;50936;51.660;5.616;2023-10-31T08:53:50;99737.31;;;24.73;48.52
64544;BME280;50936;51.660;5.616;2023-10-31T08:56:37;99745.59;;;24.73;48.77
64544;BME280;50936;51.660;5.616;2023-10-31T08:59:24;99744.28;;;24.75;48.67
64544;BME280;50936;51.660;5.616;2023-10-31T09:02:11;99746.00;;;24.76;48.41
64544;BME280;50936;51.660;5.616;2023-10-31T09:04:59;99750.66;;;24.76;48.78
64544;BME280;50936;51.660;5.616;2023-10-31T09:07:46;99761.69;;;24.76;48.51
64544;BME280;50936;51.660;5.616;2023-10-31T09:10:36;99762.31;;;24.78;48.54
64544;BME280;50936;51.660;5.616;2023-10-31T09:13:26;99765.72;;;24.80;48.52
64544;BME280;50936;51.660;5.616;2023-10-31T09:16:13;99773.13;;;24.79;48.46
64544;BME280;50936;51.660;5.616;2023-10-31T09:19:01;99779.53;;;24.80;48.44
64544;BME280;50936;51.660;5.616;2023-10-31T09:21:48;99780.13;;;24.82;49.05
64544;BME280;50936;51.660;5.616;2023-10-31T09:24:35;99779.03;;;24.83;48.67
64544;BME280;50936;51.660;5.616;2023-10-31T09:27:22;99787.50;;;24.88;48.97
64544;BME280;50936;51.660;5.616;2023-10-31T09:30:10;99790.22;;;24.95;48.78
64544;BME280;50936;51.660;5.616;2023-10-31T09:32:57;99799.03;;;25.04;48.97
64544;BME280;50936;51.660;5.616;2023-10-31T09:35:45;99800.44;;;25.13;49.19
64544;BME280;50936;51.660;5.616;2023-10-31T09:38:33;99804.59;;;25.22;48.76
64544;BME280;50936;51.660;5.616;2023-10-31T09:41:20;99805.78;;;25.33;48.96
64544;BME280;50936;51.660;5.616;2023-10-31T09:44:07;99811.25;;;25.40;48.92
64544;BME280;50936;51.660;5.616;2023-10-31T09:46:56;99813.09;;;25.46;48.93
64544;BME280;50936;51.660;5.616;2023-10-31T09:49:44;99816.19;;;25.56;48.41
64544;BME280;50936;51.660;5.616;2023-10-31T09:52:32;99824.63;;;25.61;48.46
64544;BME280;50936;51.660;5.616;2023-10-31T09:55:20;99828.16;;;25.68;48.43
64544;BME280;50936;51.660;5.616;2023-10-31T09:58:09;99830.00;;;25.74;48.20
64544;BME280;50936;51.660;5.616;2023-10-31T10:00:57;99823.91;;;25.84;48.12
64544;BME280;50936;51.660;5.616;2023-10-31T10:03:44;99838.72;;;25.90;48.04
64544;BME280;50936;51.660;5.616;2023-10-31T10:06:31;99848.91;;;25.96;48.08
64544;BME280;50936;51.660;5.616;2023-10-31T10:09:19;99850.13;;;26.00;47.64
64544;BME280;50936;51.660;5.616;2023-10-31T10:12:11;99864.13;;;26.05;47.38
64544;BME280;50936;51.660;5.616;2023-10-31T10:14:59;99863.66;;;26.08;47.67
64544;BME280;50936;51.660;5.616;2023-10-31T10:17:53;99863.78;;;26.13;47.36
64544;BME280;50936;51.660;5.616;2023-10-31T10:20:57;99863.94;;;26.19;47.23
64544;BME280;50936;51.660;5.616;2023-10-31T10:23:46;99880.00;;;26.28;46.98
64544;BME280;50936;51.660;5.616;2023-10-31T10:26:36;99883.88;;;26.39;47.07
64544;BME280;50936;51.660;5.616;2023-10-31T10:29:23;99884.53;;;26.41;47.05
64544;BME280;50936;51.660;5.616;2023-10-31T10:32:11;99888.13;;;26.42;47.20
64544;BME280;50936;51.660;5.616;2023-10-31T10:34:59;99901.25;;;26.46;47.10
64544;BME280;50936;51.660;5.616;2023-10-31T10:37:48;99894.19;;;26.50;46.97
64544;BME280;50936;51.660;5.616;2023-10-31T10:40:44;99886.50;;;26.53;46.91
64544;BME280;50936;51.660;5.616;2023-10-31T10:43:37;99903.84;;;26.60;46.85
64544;BME280;50936;51.660;5.616;2023-10-31T10:46:28;99897.41;;;26.66;46.71
64544;BME280;50936;51.660;5.616;2023-10-31T10:49:24;99902.84;;;26.73;46.79
64544;BME280;50936;51.660;5.616;2023-10-31T10:52:23;99897.69;;;26.76;46.65
64544;BME280;50936;51.660;5.616;2023-10-31T10:55:25;99896.34;;;26.79;46.46
64544;BME280;50936;51.660;5.616;2023-10-31T10:58:51;99895.63;;;26.83;46.55
64544;BME280;50936;51.660;5.616;2023-10-31T11:01:46;99900.84;;;26.92;46.51
64544;BME280;50936;51.660;5.616;2023-10-31T11:04:36;99902.06;;;26.96;46.45
64544;BME280;50936;51.660;5.616;2023-10-31T11:07:24;99894.34;;;26.98;46.53
64544;BME280;50936;51.660;5.616;2023-10-31T11:10:14;99904.50;;;27.04;46.74
64544;BME280;50936;51.660;5.616;2023-10-31T11:13:04;99903.16;;;27.06;46.39
64544;BME280;50936;51.660;5.616;2023-10-31T11:15:53;99914.63;;;27.10;46.58
64544;BME280;50936;51.660;5.616;2023-10-31T11:18:44;99916.19;;;27.18;46.34
64544;BME280;50936;51.660;5.616;2023-10-31T11:21:34;99909.34;;;27.20;46.52
64544;BME280;50936;51.660;5.616;2023-10-31T11:24:22;99905.63;;;27.26;46.58
64544;BME280;50936;51.660;5.616;2023-10-31T11:27:12;99913.47;;;27.30;46.55
64544;BME280;50936;51.660;5.616;2023-10-31T11:29:59;99927.47;;;27.35;46.30
64544;BME280;50936;51.660;5.616;2023-10-31T11:32:51;99921.06;;;27.34;46.32
64544;BME280;50936;51.660;5.616;2023-10-31T11:35:40;99927.81;;;27.38;46.42
64544;BME280;50936;51.660;5.616;2023-10-31T11:38:36;99919.84;;;27.42;46.31
64544;BME280;50936;51.660;5.616;2023-10-31T11:41:24;99925.53;;;27.47;46.05
64544;BME280;50936;51.660;5.616;2023-10-31T11:44:12;99922.53;;;27.49;46.16
64544;BME280;50936;51.660;5.616;2023-10-31T11:46:59;99929.25;;;27.53;45.58
64544;BME280;50936;51.660;5.616;2023-10-31T11:49:47;99928.66;;;27.51;45.96
64544;BME280;50936;51.660;5.616;2023-10-31T11:52:35;99931.06;;;27.47;45.88
64544;BME280;50936;51.660;5.616;2023-10-31T11:55:22;99929.63;;;27.44;45.72
64544;BME280;50936;51.660;5.616;2023-10-31T11:58:13;99931.56;;;27.44;45.67
64544;BME280;50936;51.660;5.616;2023-10-31T12:01:05;99927.69;;;27.45;45.69
64544;BME280;50936;51.660;5.616;2023-10-31T12:03:54;99931.94;;;27.48;45.41
64544;BME280;50936;51.660;5.616;2023-10-31T12:06:41;99936.75;;;27.52;45.34
64544;BME280;50936;51.660;5.616;2023-10-31T12:09:28;99936.50;;;27.54;45.39
64544;BME280;50936;51.660;5.616;2023-10-31T12:12:30;99937.94;;;27.56;45.29
64544;BME280;50936;51.660;5.616;2023-10-31T12:15:19;99937.00;;;27.62;45.10
64544;BME280;50936;51.660;5.616;2023-10-31T12:18:07;99957.63;;;27.67;44.91
64544;BME280;50936;51.660;5.616;2023-10-31T12:20:56;99955.44;;;27.69;45.13
64544;BME280;50936;51.660;5.616;2023-10-31T12:23:43;99953.88;;;27.73;45.13
64544;BME280;50936;51.660;5.616;2023-10-31T12:26:32;99954.00;;;27.78;44.88
64544;BME280;50936;51.660;5.616;2023-10-31T12:29:21;99949.16;;;27.85;44.70
64544;BME280;50936;51.660;5.616;2023-10-31T12:32:11;99954.25;;;27.88;44.78
64544;BME280;50936;51.660;5.616;2023-10-31T12:34:59;99950.63;;;27.99;44.71
64544;BME280;50936;51.660;5.616;2023-10-31T12:37:47;99946.75;;;28.00;44.65
64544;BME280;50936;51.660;5.616;2023-10-31T12:40:36;99950.63;;;27.99;44.48
64544;BME280;50936;51.660;5.616;2023-10-31T12:43:24;99957.50;;;27.97;44.49
64544;BME280;50936;51.660;5.616;2023-10-31T12:46:29;99952.22;;;27.95;44.15
64544;BME280;50936;51.660;5.616;2023-10-31T12:49:19;99947.97;;;27.93;44.38
64544;BME280;50936;51.660;5.616;2023-10-31T12:52:06;99949.91;;;27.92;44.51
64544;BME280;50936;51.660;5.616;2023-10-31T12:54:54;99948.22;;;27.91;44.21
64544;BME280;50936;51.660;5.616;2023-10-31T12:57:41;99943.78;;;27.90;44.32
64544;BME280;50936;51.660;5.616;2023-10-31T13:00:33;99944.81;;;27.89;44.26
64544;BME280;50936;51.660;5.616;2023-10-31T13:03:21;99944.81;;;27.89;44.26
64544;BME280;50936;51.660;5.616;2023-10-31T13:06:16;99946.16;;;27.87;44.40
64544;BME280;50936;51.660;5.616;2023-10-31T13:09:03;99939.06;;;27.79;44.32
64544;BME280;50936;51.660;5.616;2023-10-31T13:12:02;99940.00;;;27.73;44.14
64544;BME280;50936;51.660;5.616;2023-10-31T13:14:53;99944.34;;;27.69;44.14
64544;BME280;50936;51.660;5.616;2023-10-31T13:17:41;99943.03;;;27.59;44.42
64544;BME280;50936;51.660;5.616;2023-10-31T13:20:30;99949.66;;;27.58;44.44
64544;BME280;50936;51.660;5.616;2023-10-31T13:23:18;99940.00;;;27.49;44.33
64544;BME280;50936;51.660;5.616;2023-10-31T13:26:07;99946.03;;;27.46;44.55
64544;BME280;50936;51.660;5.616;2023-10-31T13:28:54;99950.84;;;27.39;44.68
64544;BME280;50936;51.660;5.616;2023-10-31T13:31:41;99954.09;;;27.36;44.69
64544;BME280;50936;51.660;5.616;2023-10-31T13:34:29;99957.97;;;27.35;44.50
64544;BME280;50936;51.660;5.616;2023-10-31T13:37:19;99952.75;;;27.26;44.62
64544;BME280;50936;51.660;5.616;2023-10-31T13:40:07;99952.34;;;27.23;44.67
64544;BME280;50936;51.660;5.616;2023-10-31T13:42:55;99960.06;;;27.21;44.69
64544;BME280;50936;51.660;5.616;2023-10-31T13:45:42;99955.47;;;27.15;44.83
64544;BME280;50936;51.660;5.616;2023-10-31T13:48:30;99957.03;;;27.11;44.90
64544;BME280;50936;51.660;5.616;2023-10-31T13:51:17;99966.66;;;27.08;44.99
64544;BME280;50936;51.660;5.616;2023-10-31T13:54:06;99964.97;;;27.07;45.17
64544;BME280;50936;51.660;5.616;2023-10-31T13:56:53;99965.44;;;27.04;44.89
64544;BME280;50936;51.660;5.616;2023-10-31T13:59:40;99972.91;;;27.03;45.26
64544;BME280;50936;51.660;5.616;2023-10-31T14:02:27;99969.16;;;26.98;45.10
64544;BME280;50936;51.660;5.616;2023-10-31T14:05:15;99965.78;;;26.96;45.21
64544;BME280;50936;51.660;5.616;2023-10-31T14:08:04;99965.16;;;26.94;45.35
64544;BME280;50936;51.660;5.616;2023-10-31T14:10:53;99975.19;;;26.95;45.57
64544;BME280;50936;51.660;5.616;2023-10-31T14:13:43;99969.88;;;26.93;45.59
64544;BME280;50936;51.660;5.616;2023-10-31T14:16:37;99974.56;;;26.93;45.61
64544;BME280;50936;51.660;5.616;2023-10-31T14:19:28;99983.50;;;26.95;45.72
64544;BME280;50936;51.660;5.616;2023-10-31T14:22:15;99981.78;;;26.94;45.68
64544;BME280;50936;51.660;5.616;2023-10-31T14:25:02;99990.34;;;26.92;45.68
64544;BME280;50936;51.660;5.616;2023-10-31T14:27:51;99991.53;;;26.96;45.72
64544;BME280;50936;51.660;5.616;2023-10-31T14:30:38;99987.34;;;26.94;45.70
64544;BME280;50936;51.660;5.616;2023-10-31T14:33:26;99999.50;;;26.93;45.59
64544;BME280;50936;51.660;5.616;2023-10-31T14:36:14;99997.81;;;26.92;45.63
64544;BME280;50936;51.660;5.616;2023-10-31T14:39:01;100001.41;;;26.92;45.78
64544;BME280;50936;51.660;5.616;2023-10-31T14:41:48;100003.97;;;26.94;45.79
64544;BME280;50936;51.660;5.616;2023-10-31T14:44:36;99999.50;;;26.93;45.82
64544;BME280;50936;51.660;5.616;2023-10-31T14:47:23;99991.53;;;26.96;45.88
64544;BME280;50936;51.660;5.616;2023-10-31T14:50:11;99998.78;;;26.97;45.89